createdAt,value
2023-02-03T00:00:09.018Z,67.59
2023-02-03T00:02:36.249Z,67.89
2023-02-03T00:05:03.622Z,68.86
2023-02-03T00:07:31.203Z,68.77
2023-02-03T00:09:58.576Z,68.63
2023-02-03T00:12:25.896Z,68.76
2023-02-03T00:14:53.098Z,69.45
2023-02-03T00:17:21.827Z,68.97
2023-02-03T00:19:50.274Z,70.00
2023-02-03T00:22:17.938Z,69.36
2023-02-03T00:24:45.124Z,69.43
2023-02-03T00:27:12.703Z,70.16
2023-02-03T00:29:40.137Z,69.43
2023-02-03T00:32:07.424Z,69.17
2023-02-03T00:34:36.285Z,68.93
2023-02-03T00:37:03.414Z,68.88
2023-02-03T00:39:30.962Z,69.83
2023-02-03T00:41:58.268Z,69.51
2023-02-03T00:44:25.604Z,68.80
2023-02-03T00:46:52.815Z,68.43
2023-02-03T00:49:20.229Z,68.08
2023-02-03T00:51:49.061Z,67.34
2023-02-03T00:54:16.691Z,66.73
2023-02-03T00:56:44.079Z,65.84
2023-02-03T00:59:11.455Z,65.90
2023-02-03T01:01:38.744Z,65.55
2023-02-03T01:04:06.256Z,65.58
2023-02-03T01:06:33.544Z,65.62
2023-02-03T01:09:03.737Z,65.62
2023-02-03T01:11:32.753Z,65.69
2023-02-03T01:14:01.842Z,66.03
2023-02-03T01:16:31.326Z,66.28
2023-02-03T01:18:58.695Z,66.69
2023-02-03T01:21:26.807Z,66.82
2023-02-03T01:23:54.461Z,67.29
2023-02-03T01:26:24.492Z,67.33
2023-02-03T01:28:52.942Z,67.71
2023-02-03T01:31:22.771Z,67.99
2023-02-03T01:33:52.038Z,68.17
2023-02-03T01:36:19.239Z,68.31
2023-02-03T01:38:46.713Z,68.59
2023-02-03T01:41:16.394Z,68.71
2023-02-03T01:43:46.403Z,68.93
2023-02-03T01:46:27.734Z,68.96
2023-02-03T01:48:59.813Z,68.93
2023-02-03T01:51:27.124Z,69.37
2023-02-03T01:53:55.563Z,70.86
2023-02-03T01:56:23.934Z,71.00
2023-02-03T01:58:52.548Z,70.50
2023-02-03T02:01:19.988Z,71.24
2023-02-03T02:03:51.241Z,70.83
2023-02-03T02:06:18.515Z,70.14
2023-02-03T02:08:49.586Z,70.43
2023-02-03T02:11:18.628Z,71.37
2023-02-03T02:13:46.824Z,71.87
2023-02-03T02:16:19.714Z,72.43
2023-02-03T02:18:58.532Z,74.17
2023-02-03T02:21:45.743Z,73.69
2023-02-03T02:24:51.300Z,74.61
2023-02-03T02:27:30.637Z,75.79
2023-02-03T02:30:28.537Z,74.50
2023-02-03T02:33:10.754Z,76.72
2023-02-03T02:35:50.960Z,76.66
2023-02-03T02:38:27.226Z,76.94
2023-02-03T02:41:03.383Z,76.49
2023-02-03T02:43:40.491Z,76.87
2023-02-03T02:46:13.172Z,77.31
2023-02-03T02:48:46.665Z,76.44
2023-02-03T02:51:16.672Z,76.72
2023-02-03T02:53:49.341Z,76.71
2023-02-03T02:56:19.030Z,77.34
2023-02-03T02:58:49.622Z,78.33
2023-02-03T03:01:17.360Z,78.55
2023-02-03T03:03:46.349Z,77.87
2023-02-03T03:06:19.019Z,77.79
2023-02-03T03:08:49.873Z,76.68
2023-02-03T03:11:18.498Z,77.35
2023-02-03T03:13:49.802Z,78.41
2023-02-03T03:16:22.718Z,78.66
2023-02-03T03:18:56.558Z,78.31
2023-02-03T03:21:28.766Z,77.72
2023-02-03T03:23:59.503Z,77.29
2023-02-03T03:26:32.706Z,77.48
2023-02-03T03:29:07.957Z,77.53
2023-02-03T03:31:36.367Z,77.13
2023-02-03T03:34:05.405Z,79.63
2023-02-03T03:36:38.974Z,79.72
2023-02-03T03:39:12.117Z,78.81
2023-02-03T03:41:46.325Z,79.55
2023-02-03T03:44:16.069Z,80.78
2023-02-03T03:46:49.400Z,80.69
2023-02-03T03:49:21.234Z,80.73
2023-02-03T03:51:52.012Z,80.50
2023-02-03T03:54:22.279Z,80.94
2023-02-03T03:56:55.078Z,79.43
2023-02-03T03:59:24.385Z,78.61
2023-02-03T04:01:52.656Z,78.70
2023-02-03T04:04:24.619Z,78.71
2023-02-03T04:06:53.610Z,78.41
2023-02-03T04:09:21.006Z,79.11
2023-02-03T04:12:03.716Z,78.98
2023-02-03T04:14:32.141Z,79.07
2023-02-03T04:16:59.837Z,79.29
2023-02-03T04:19:28.455Z,79.32
2023-02-03T04:21:55.729Z,79.60
2023-02-03T04:24:23.080Z,79.23
2023-02-03T04:26:50.360Z,79.31
2023-02-03T04:29:17.539Z,78.67
2023-02-03T04:31:44.968Z,78.28
2023-02-03T04:34:12.358Z,78.99
2023-02-03T04:36:41.179Z,79.08
2023-02-03T04:39:08.362Z,79.65
2023-02-03T04:41:35.523Z,79.33
2023-02-03T04:44:02.763Z,78.30
2023-02-03T04:46:30.282Z,77.69
2023-02-03T04:48:57.821Z,78.90
2023-02-03T04:51:25.036Z,79.84
2023-02-03T04:53:53.865Z,78.44
2023-02-03T04:56:21.148Z,77.23
2023-02-03T04:58:48.645Z,78.01
2023-02-03T05:01:15.974Z,76.28
2023-02-03T05:03:43.255Z,76.01
2023-02-03T05:06:10.555Z,77.80
2023-02-03T05:08:37.792Z,77.32
2023-02-03T05:11:06.790Z,77.09
2023-02-03T05:13:34.304Z,77.92
2023-02-03T05:16:01.661Z,78.10
2023-02-03T05:18:28.894Z,77.09
2023-02-03T05:20:56.271Z,77.94
2023-02-03T05:23:23.518Z,75.84
2023-02-03T05:25:50.875Z,75.85
2023-02-03T05:28:20.878Z,76.85
2023-02-03T05:30:48.108Z,76.34
2023-02-03T05:33:15.350Z,78.36
2023-02-03T05:35:42.562Z,77.93
2023-02-03T05:38:10.111Z,77.52
2023-02-03T05:40:56.258Z,74.68
2023-02-03T05:43:25.087Z,75.90
2023-02-03T05:45:52.400Z,74.74
2023-02-03T05:48:19.833Z,74.65
2023-02-03T05:50:47.002Z,75.65
2023-02-03T05:53:14.217Z,75.45
2023-02-03T05:55:41.549Z,74.79
2023-02-03T05:58:08.924Z,74.52
2023-02-03T06:00:37.734Z,75.37
2023-02-03T06:03:05.224Z,75.58
2023-02-03T06:05:34.010Z,75.56
2023-02-03T06:08:02.285Z,75.71
2023-02-03T06:10:29.971Z,76.81
2023-02-03T06:12:57.497Z,76.43
2023-02-03T06:15:24.745Z,76.12
2023-02-03T06:17:53.543Z,77.33
2023-02-03T06:20:22.405Z,78.11
2023-02-03T06:22:49.763Z,77.97
2023-02-03T06:25:17.260Z,78.53
2023-02-03T06:27:45.955Z,79.29
2023-02-03T06:30:13.969Z,79.25
2023-02-03T06:32:43.988Z,80.32
2023-02-03T06:35:12.819Z,80.36
2023-02-03T06:37:39.990Z,82.96
2023-02-03T06:40:08.327Z,80.08
2023-02-03T06:42:36.514Z,81.53
2023-02-03T06:45:04.194Z,82.66
2023-02-03T06:47:31.558Z,81.77
2023-02-03T06:49:58.803Z,82.37
2023-02-03T06:52:27.472Z,80.84
2023-02-03T06:54:54.829Z,82.04
2023-02-03T06:57:22.079Z,82.26
2023-02-03T06:59:49.249Z,82.79
2023-02-03T07:02:16.727Z,83.22
2023-02-03T07:04:45.208Z,82.33
2023-02-03T07:07:12.693Z,83.48
2023-02-03T07:09:42.122Z,83.24
2023-02-03T07:12:09.953Z,82.96
2023-02-03T07:14:39.403Z,83.36
2023-02-03T07:17:07.341Z,84.07
2023-02-03T07:19:34.554Z,83.27
2023-02-03T07:22:01.990Z,83.68
2023-02-03T07:24:29.384Z,83.61
2023-02-03T07:26:57.950Z,84.64
2023-02-03T07:29:25.187Z,84.66
2023-02-03T07:31:52.755Z,83.20
2023-02-03T07:34:20.397Z,83.77
2023-02-03T07:36:47.600Z,84.13
2023-02-03T07:39:14.941Z,84.67
2023-02-03T07:41:42.225Z,84.87
2023-02-03T07:44:11.664Z,84.09
2023-02-03T07:46:45.043Z,84.21
2023-02-03T07:49:14.553Z,84.96
2023-02-03T07:51:41.925Z,84.42
2023-02-03T07:54:09.486Z,84.01
2023-02-03T07:56:36.731Z,83.08
2023-02-03T07:59:18.994Z,83.16
2023-02-03T08:01:48.144Z,83.32
2023-02-03T08:05:13.148Z,83.73
2023-02-03T08:07:51.147Z,83.74
2023-02-03T08:10:20.775Z,83.54
2023-02-03T08:13:00.659Z,83.22
2023-02-03T08:15:29.915Z,82.64
2023-02-03T08:17:59.490Z,84.08
2023-02-03T08:20:32.511Z,83.91
2023-02-03T08:22:59.886Z,81.55
2023-02-03T08:25:27.061Z,80.96
2023-02-03T08:27:56.829Z,80.88
2023-02-03T08:30:24.721Z,81.46
2023-02-03T08:32:51.955Z,83.05
2023-02-03T08:35:20.565Z,83.76
2023-02-03T08:37:58.846Z,82.11
2023-02-03T08:40:34.488Z,84.85
2023-02-03T08:43:02.956Z,82.22
2023-02-03T08:45:34.624Z,83.07
2023-02-03T08:48:02.237Z,84.34
2023-02-03T08:50:31.573Z,83.90
2023-02-03T08:52:59.452Z,82.98
2023-02-03T08:55:26.970Z,83.73
2023-02-03T08:57:55.827Z,82.31
2023-02-03T09:00:24.130Z,83.20
2023-02-03T09:02:51.706Z,83.51
2023-02-03T09:05:19.165Z,83.64
2023-02-03T09:07:48.347Z,84.00
2023-02-03T09:10:16.194Z,83.22
2023-02-03T09:12:45.751Z,83.21
2023-02-03T09:15:17.109Z,84.32
2023-02-03T09:17:45.334Z,83.74
2023-02-03T09:20:18.339Z,84.21
2023-02-03T09:22:47.154Z,83.31
2023-02-03T09:25:16.433Z,81.16
2023-02-03T09:27:43.858Z,79.96
2023-02-03T09:30:13.719Z,81.58
2023-02-03T09:32:41.049Z,81.80
2023-02-03T09:35:09.429Z,84.26
2023-02-03T09:37:36.880Z,79.97
2023-02-03T09:40:06.809Z,79.69
2023-02-03T09:42:51.527Z,79.96
2023-02-03T09:45:26.458Z,80.58
2023-02-03T09:48:11.752Z,81.31
2023-02-03T09:50:41.821Z,82.26
2023-02-03T09:56:35.952Z,80.94
2023-02-03T09:59:06.101Z,79.56
2023-02-03T10:01:42.851Z,80.58
2023-02-03T10:04:28.524Z,80.90
2023-02-03T10:07:11.809Z,81.30
2023-02-03T10:09:58.511Z,79.09
2023-02-03T10:12:46.147Z,78.72
2023-02-03T10:15:42.804Z,79.78
2023-02-03T10:18:15.587Z,81.43
2023-02-03T10:20:47.130Z,81.70
2023-02-03T10:23:20.963Z,81.28
2023-02-03T10:25:57.411Z,81.00
2023-02-03T10:28:29.737Z,81.24
2023-02-03T10:31:04.927Z,81.92
2023-02-03T10:33:34.676Z,80.69
2023-02-03T10:36:08.252Z,78.37
2023-02-03T10:38:56.824Z,80.15
2023-02-03T10:41:25.094Z,81.71
2023-02-03T10:43:55.529Z,78.45
2023-02-03T10:46:28.665Z,79.27
2023-02-03T10:48:59.278Z,80.31
2023-02-03T10:51:30.415Z,83.29
2023-02-03T10:53:58.373Z,81.11
2023-02-03T10:56:29.636Z,82.43
2023-02-03T10:59:01.093Z,80.57
2023-02-03T11:01:39.579Z,79.96
2023-02-03T11:04:22.340Z,80.14
2023-02-03T11:06:56.400Z,79.24
2023-02-03T11:09:34.140Z,79.46
2023-02-03T11:12:13.530Z,81.22
2023-02-03T11:14:46.972Z,79.27
2023-02-03T11:17:19.626Z,79.49
2023-02-03T11:19:49.085Z,78.31
2023-02-03T11:22:31.266Z,79.36
2023-02-03T11:25:00.011Z,80.49
2023-02-03T11:27:30.417Z,77.98
2023-02-03T11:30:14.377Z,77.92
2023-02-03T11:32:48.639Z,77.36
2023-02-03T11:35:19.395Z,78.64
2023-02-03T11:37:48.372Z,80.58
2023-02-03T11:40:25.853Z,78.45
2023-02-03T11:43:05.801Z,77.96
2023-02-03T11:45:42.142Z,77.97
2023-02-03T11:48:23.186Z,77.86
2023-02-03T11:50:56.818Z,76.89
2023-02-03T11:53:30.417Z,80.01
2023-02-03T11:56:17.365Z,75.53
2023-02-03T11:59:06.542Z,74.80
2023-02-03T12:01:51.713Z,74.06
2023-02-03T12:04:36.969Z,68.69
2023-02-03T12:07:21.652Z,67.75
2023-02-03T12:09:58.746Z,66.47
2023-02-03T12:12:51.611Z,69.02
2023-02-03T12:15:33.861Z,66.96
2023-02-03T12:18:42.218Z,66.03
2023-02-03T12:21:32.868Z,65.21
2023-02-03T12:24:08.882Z,65.26
2023-02-03T12:26:43.330Z,66.44
2023-02-03T12:29:14.916Z,63.20
2023-02-03T12:31:50.561Z,65.83
2023-02-03T12:34:24.674Z,66.12
2023-02-03T12:36:59.341Z,65.56
2023-02-03T12:39:31.348Z,64.08
2023-02-03T12:42:03.484Z,63.54
2023-02-03T12:44:37.775Z,65.76
2023-02-03T12:47:12.716Z,65.15
2023-02-03T12:49:46.515Z,65.06
2023-02-03T12:52:20.641Z,66.67
2023-02-03T12:54:54.288Z,64.06
2023-02-03T12:57:26.772Z,63.34
2023-02-03T13:00:06.472Z,66.22
2023-02-03T13:02:42.743Z,66.71
2023-02-03T13:05:21.389Z,68.85
2023-02-03T13:08:07.949Z,65.69
2023-02-03T13:10:42.183Z,64.09
2023-02-03T13:13:14.586Z,64.99
2023-02-03T13:15:45.683Z,66.15
2023-02-03T13:18:26.431Z,67.07
2023-02-03T13:20:56.251Z,64.65
2023-02-03T13:23:25.082Z,66.45
2023-02-03T13:26:12.663Z,65.88
2023-02-03T13:28:58.123Z,64.79
2023-02-03T13:31:38.709Z,66.14
2023-02-03T13:34:27.340Z,65.07
2023-02-03T13:37:42.010Z,65.31
2023-02-03T13:40:18.907Z,64.88
2023-02-03T13:42:53.123Z,66.24
2023-02-03T13:45:26.780Z,67.15
2023-02-03T13:47:58.285Z,65.98
2023-02-03T13:50:29.825Z,66.13
2023-02-03T13:53:01.905Z,66.83
2023-02-03T13:55:36.014Z,68.05
2023-02-03T13:58:04.460Z,70.02
2023-02-03T14:01:08.047Z,70.32
2023-02-03T14:03:43.798Z,68.09
2023-02-03T14:06:48.204Z,68.38
2023-02-03T14:09:22.717Z,70.00
2023-02-03T14:11:52.742Z,64.33
2023-02-03T14:14:42.539Z,64.59
2023-02-03T14:17:42.441Z,64.75
2023-02-03T14:20:42.282Z,65.72
2023-02-03T14:23:14.908Z,68.50
2023-02-03T14:25:47.335Z,68.49
2023-02-03T14:28:17.906Z,66.16
2023-02-03T14:31:05.488Z,66.42
2023-02-03T14:34:08.898Z,63.17
2023-02-03T14:36:48.917Z,64.75
2023-02-03T14:39:56.521Z,62.49
2023-02-03T14:43:10.191Z,63.17
2023-02-03T14:46:07.696Z,63.94
2023-02-03T14:48:48.489Z,64.44
2023-02-03T14:51:29.722Z,64.36
2023-02-03T14:54:16.409Z,68.11
2023-02-03T14:57:06.903Z,65.15
2023-02-03T14:59:39.993Z,65.96
2023-02-03T15:02:19.299Z,67.97
2023-02-03T15:04:50.947Z,67.83
2023-02-03T15:07:39.220Z,67.52
2023-02-03T15:10:14.312Z,68.89
2023-02-03T15:12:46.072Z,70.67
2023-02-03T15:15:15.556Z,68.89
2023-02-03T15:17:44.263Z,67.38
2023-02-03T15:20:34.195Z,69.24
2023-02-03T15:23:01.900Z,72.34
2023-02-03T15:25:33.182Z,70.70
2023-02-03T15:28:20.007Z,68.56
2023-02-03T15:30:51.356Z,67.63
2023-02-03T15:33:23.373Z,68.02
2023-02-03T15:35:55.649Z,69.26
2023-02-03T15:38:26.914Z,71.79
2023-02-03T15:40:58.020Z,70.58
2023-02-03T15:43:31.472Z,70.52
2023-02-03T15:46:05.252Z,69.04
2023-02-03T15:48:42.144Z,69.65
2023-02-03T15:51:14.194Z,68.20
2023-02-03T15:53:48.840Z,73.56
2023-02-03T15:56:37.656Z,71.47
2023-02-03T15:59:06.486Z,71.33
2023-02-03T16:01:33.946Z,72.16
2023-02-03T16:04:09.542Z,75.70
2023-02-03T16:06:40.731Z,78.18
2023-02-03T16:09:27.463Z,76.25
2023-02-03T16:12:06.159Z,80.04
2023-02-03T16:14:34.822Z,80.74
2023-02-03T16:17:05.900Z,82.23
2023-02-03T16:19:38.381Z,84.30
2023-02-03T16:22:28.776Z,84.03
2023-02-03T16:24:56.857Z,84.30
2023-02-03T16:27:33.801Z,85.10
2023-02-03T16:30:41.674Z,87.82
2023-02-03T16:33:34.201Z,86.12
2023-02-03T16:36:29.765Z,87.83
2023-02-03T16:39:17.670Z,88.33
2023-02-03T16:42:03.760Z,87.15
2023-02-03T16:44:49.461Z,88.80
2023-02-03T16:47:42.299Z,86.09
2023-02-03T16:50:38.373Z,86.86
2023-02-03T16:53:18.076Z,87.57
2023-02-03T16:55:46.087Z,88.56
2023-02-03T16:58:13.856Z,89.41
2023-02-03T17:00:42.696Z,87.94
2023-02-03T17:03:14.138Z,88.61
2023-02-03T17:05:45.531Z,87.14
2023-02-03T17:08:15.623Z,86.65
2023-02-03T17:10:44.099Z,86.26
2023-02-03T17:13:12.225Z,87.04
2023-02-03T17:15:40.452Z,84.42
2023-02-03T17:18:08.045Z,84.96
2023-02-03T17:20:36.057Z,84.87
2023-02-03T17:23:04.085Z,86.49
2023-02-03T17:25:36.146Z,86.43
2023-02-03T17:28:03.978Z,85.67
2023-02-03T17:30:35.403Z,86.79
2023-02-03T17:33:11.904Z,86.32
2023-02-03T17:35:41.126Z,88.96
2023-02-03T17:38:08.863Z,86.74
2023-02-03T17:54:28.471Z,88.21
2023-02-03T17:56:57.368Z,86.00
2023-02-03T17:59:24.953Z,85.60
2023-02-03T18:01:53.452Z,84.68
2023-02-03T18:04:20.971Z,88.32
2023-02-03T18:06:48.415Z,87.54
2023-02-03T18:09:16.939Z,87.40
2023-02-03T18:11:45.952Z,85.38
2023-02-03T18:14:16.517Z,87.49
2023-02-03T18:16:44.556Z,88.96
2023-02-03T18:19:16.066Z,87.90
2023-02-03T18:21:44.356Z,86.15
2023-02-03T18:24:13.698Z,86.01
2023-02-03T18:26:47.795Z,86.05
2023-02-03T18:29:17.382Z,85.87
2023-02-03T18:31:45.287Z,88.32
2023-02-03T18:34:12.992Z,88.76
2023-02-03T18:39:14.759Z,86.66
2023-02-03T18:41:42.715Z,85.73
2023-02-03T18:44:10.262Z,87.71
2023-02-03T18:46:39.245Z,88.96
2023-02-03T18:49:09.448Z,89.22
2023-02-03T18:51:37.362Z,88.41
2023-02-03T18:54:06.169Z,86.30
2023-02-03T18:56:35.559Z,87.71
2023-02-03T18:59:08.430Z,89.02
2023-02-03T19:01:39.182Z,87.38
2023-02-03T19:04:07.381Z,86.19
2023-02-03T19:06:36.015Z,86.44
2023-02-03T19:09:05.689Z,86.35
2023-02-03T19:11:34.080Z,88.91
2023-02-03T19:14:01.884Z,88.11
2023-02-03T19:16:29.536Z,87.60
2023-02-03T19:18:58.587Z,87.59
2023-02-03T19:21:26.335Z,89.43
2023-02-03T19:23:53.930Z,87.61
2023-02-03T19:26:21.492Z,88.53
2023-02-03T19:28:49.658Z,85.74
2023-02-03T19:31:17.132Z,85.56
2023-02-03T19:33:44.923Z,85.18
2023-02-03T19:36:14.037Z,85.29
2023-02-03T19:38:42.712Z,84.77
2023-02-03T19:41:11.824Z,84.53
2023-02-03T19:43:40.354Z,82.25
2023-02-03T19:46:07.848Z,83.34
2023-02-03T19:48:35.959Z,80.87
2023-02-03T19:51:03.439Z,81.61
2023-02-03T19:53:33.015Z,82.27
2023-02-03T19:56:00.571Z,82.08
2023-02-03T19:58:28.396Z,83.16
2023-02-03T20:00:56.015Z,83.50
2023-02-03T20:03:23.779Z,83.74
2023-02-03T20:05:55.179Z,84.62
2023-02-03T20:08:22.910Z,83.02
2023-02-03T20:10:52.635Z,83.95
2023-02-03T20:13:20.490Z,83.53
2023-02-03T20:15:48.049Z,83.85
2023-02-03T20:18:15.778Z,84.77
2023-02-03T20:20:43.346Z,83.75
2023-02-03T20:23:10.991Z,81.79
2023-02-03T20:25:38.737Z,82.43
2023-02-03T20:28:07.795Z,80.79
2023-02-03T20:30:35.581Z,82.87
2023-02-03T20:33:04.832Z,79.84
2023-02-03T20:35:33.481Z,81.30
2023-02-03T20:38:01.165Z,79.96
2023-02-03T20:40:29.865Z,79.02
2023-02-03T20:43:02.628Z,78.98
2023-02-03T20:45:31.841Z,78.60
2023-02-03T20:47:59.207Z,78.92
2023-02-03T20:50:37.320Z,78.14
2023-02-03T20:53:13.645Z,79.73
2023-02-03T20:55:41.768Z,78.39
2023-02-03T20:58:21.966Z,78.34
2023-02-03T21:00:51.593Z,79.31
2023-02-03T21:03:38.669Z,79.20
2023-02-03T21:06:13.370Z,78.72
2023-02-03T21:08:40.946Z,72.85
2023-02-03T21:11:11.562Z,78.37
2023-02-03T21:13:39.344Z,78.63
2023-02-03T21:16:16.559Z,79.91
2023-02-03T21:18:48.185Z,80.75
2023-02-03T21:21:17.406Z,80.39
2023-02-03T21:23:47.581Z,80.08
2023-02-03T21:26:20.538Z,80.73
2023-02-03T21:28:50.066Z,79.89
2023-02-03T21:31:29.284Z,80.07
2023-02-03T21:33:58.526Z,81.76
2023-02-03T21:36:28.021Z,80.96
2023-02-03T21:38:59.149Z,80.56
2023-02-03T21:41:32.168Z,80.88
2023-02-03T21:44:00.249Z,80.82
2023-02-03T21:46:32.309Z,81.34
2023-02-03T21:49:00.951Z,81.44
2023-02-03T21:51:33.229Z,81.67
2023-02-03T21:54:02.510Z,81.62
2023-02-03T21:56:41.894Z,82.13
2023-02-03T21:59:16.749Z,82.87
2023-02-03T22:01:45.672Z,82.17
2023-02-03T22:04:13.504Z,81.72
2023-02-03T22:06:44.598Z,81.79
2023-02-03T22:09:13.009Z,82.09
2023-02-03T22:11:40.882Z,81.87
2023-02-03T22:14:08.462Z,81.71
2023-02-03T22:16:35.907Z,82.29
2023-02-03T22:19:04.572Z,83.86
2023-02-03T22:21:32.135Z,82.74
2023-02-03T22:23:59.402Z,82.13
2023-02-03T22:26:26.796Z,82.13
2023-02-03T22:28:54.282Z,82.60
2023-02-03T22:31:22.589Z,82.50
2023-02-03T22:33:50.067Z,81.86
2023-02-03T22:36:18.845Z,80.55
2023-02-03T22:38:46.292Z,78.29
2023-02-03T22:41:14.489Z,75.89
2023-02-03T22:43:41.785Z,74.45
2023-02-03T22:46:09.374Z,73.61
2023-02-03T22:48:37.056Z,73.01
2023-02-03T22:51:05.123Z,72.34
2023-02-03T22:53:34.866Z,71.59
2023-02-03T22:56:02.176Z,71.70
2023-02-03T22:58:29.752Z,71.27
2023-02-03T23:00:57.108Z,70.03
2023-02-03T23:03:24.882Z,70.47
2023-02-03T23:05:52.241Z,70.49
2023-02-03T23:08:19.645Z,70.46
2023-02-03T23:10:48.409Z,70.63
2023-02-03T23:13:15.797Z,71.29
2023-02-03T23:15:43.314Z,71.71
2023-02-03T23:18:10.773Z,70.59
2023-02-03T23:20:38.279Z,70.42
2023-02-03T23:23:06.063Z,71.00
2023-02-03T23:25:33.285Z,70.15
2023-02-03T23:28:02.039Z,69.72
2023-02-03T23:30:29.837Z,69.20
2023-02-03T23:32:57.511Z,68.81
2023-02-03T23:35:43.283Z,68.75
2023-02-03T23:38:10.634Z,68.61
2023-02-03T23:40:38.105Z,69.03
2023-02-03T23:43:06.754Z,70.13
2023-02-03T23:45:34.007Z,69.16
2023-02-03T23:48:01.558Z,69.34
2023-02-03T23:50:29.107Z,69.72
2023-02-03T23:52:56.688Z,69.90
2023-02-03T23:55:23.974Z,69.89
2023-02-03T23:57:51.492Z,69.67
